sensor_id;sensor_type;location;lat;lon;timestamp;P1;durP1;ratioP1;P2;durP2;ratioP2
3847;SDS011;1939;48.720;9.166;2023-04-15T00:00:20;14.70;;;7.63;;
3847;SDS011;1939;48.720;9.166;2023-04-15T00:02:45;11.83;;;7.40;;
3847;SDS011;1939;48.720;9.166;2023-04-15T00:05:10;19.07;;;8.07;;
3847;SDS011;1939;48.720;9.166;2023-04-15T00:07:36;12.47;;;8.10;;
3847;SDS011;1939;48.720;9.166;2023-04-15T00:10:01;15.73;;;8.37;;
3847;SDS011;1939;48.720;9.166;2023-04-15T00:12:27;12.57;;;8.10;;
3847;SDS011;1939;48.720;9.166;2023-04-15T00:14:52;17.90;;;7.90;;
3847;SDS011;1939;48.720;9.166;2023-04-15T00:17:18;18.93;;;8.83;;
3847;SDS011;1939;48.720;9.166;2023-04-15T00:19:43;11.93;;;8.30;;
3847;SDS011;1939;48.720;9.166;2023-04-15T00:22:10;13.00;;;8.20;;
3847;SDS011;1939;48.720;9.166;2023-04-15T00:24:35;12.10;;;7.00;;
3847;SDS011;1939;48.720;9.166;2023-04-15T00:27:00;15.63;;;7.97;;
3847;SDS011;1939;48.720;9.166;2023-04-15T00:29:26;11.80;;;8.20;;
3847;SDS011;1939;48.720;9.166;2023-04-15T00:31:51;14.70;;;9.40;;
3847;SDS011;1939;48.720;9.166;2023-04-15T00:34:16;12.30;;;7.93;;
3847;SDS011;1939;48.720;9.166;2023-04-15T00:36:42;19.20;;;8.90;;
3847;SDS011;1939;48.720;9.166;2023-04-15T00:39:07;16.33;;;9.53;;
3847;SDS011;1939;48.720;9.166;2023-04-15T00:41:33;16.67;;;10.17;;
3847;SDS011;1939;48.720;9.166;2023-04-15T00:43:58;15.27;;;9.10;;
3847;SDS011;1939;48.720;9.166;2023-04-15T00:46:24;16.33;;;9.13;;
3847;SDS011;1939;48.720;9.166;2023-04-15T00:48:50;15.63;;;8.43;;
3847;SDS011;1939;48.720;9.166;2023-04-15T00:51:16;12.00;;;8.77;;
3847;SDS011;1939;48.720;9.166;2023-04-15T00:53:41;19.03;;;8.80;;
3847;SDS011;1939;48.720;9.166;2023-04-15T00:56:07;13.10;;;8.50;;
3847;SDS011;1939;48.720;9.166;2023-04-15T00:58:32;16.53;;;9.03;;
3847;SDS011;1939;48.720;9.166;2023-04-15T01:00:58;10.83;;;7.40;;
3847;SDS011;1939;48.720;9.166;2023-04-15T01:03:23;14.53;;;7.60;;
3847;SDS011;1939;48.720;9.166;2023-04-15T01:05:49;14.70;;;6.60;;
3847;SDS011;1939;48.720;9.166;2023-04-15T01:08:15;10.27;;;7.17;;
3847;SDS011;1939;48.720;9.166;2023-04-15T01:10:40;16.33;;;7.30;;
3847;SDS011;1939;48.720;9.166;2023-04-15T01:13:05;10.30;;;6.20;;
3847;SDS011;1939;48.720;9.166;2023-04-15T01:15:31;8.70;;;6.00;;
3847;SDS011;1939;48.720;9.166;2023-04-15T01:17:56;11.77;;;6.47;;
3847;SDS011;1939;48.720;9.166;2023-04-15T01:20:22;10.17;;;6.17;;
3847;SDS011;1939;48.720;9.166;2023-04-15T01:22:48;10.57;;;6.10;;
3847;SDS011;1939;48.720;9.166;2023-04-15T01:25:17;13.27;;;8.00;;
3847;SDS011;1939;48.720;9.166;2023-04-15T01:27:42;7.10;;;5.13;;
3847;SDS011;1939;48.720;9.166;2023-04-15T01:30:08;9.50;;;5.23;;
3847;SDS011;1939;48.720;9.166;2023-04-15T01:32:34;8.57;;;5.10;;
3847;SDS011;1939;48.720;9.166;2023-04-15T01:35:00;8.13;;;5.60;;
3847;SDS011;1939;48.720;9.166;2023-04-15T01:37:25;13.03;;;6.00;;
3847;SDS011;1939;48.720;9.166;2023-04-15T01:39:51;9.77;;;5.67;;
3847;SDS011;1939;48.720;9.166;2023-04-15T01:42:16;10.27;;;6.60;;
3847;SDS011;1939;48.720;9.166;2023-04-15T01:44:41;6.90;;;4.60;;
3847;SDS011;1939;48.720;9.166;2023-04-15T01:47:07;10.80;;;4.97;;
3847;SDS011;1939;48.720;9.166;2023-04-15T01:49:32;7.83;;;5.60;;
3847;SDS011;1939;48.720;9.166;2023-04-15T01:51:58;12.37;;;6.60;;
3847;SDS011;1939;48.720;9.166;2023-04-15T01:54:23;10.40;;;5.23;;
3847;SDS011;1939;48.720;9.166;2023-04-15T01:56:48;18.80;;;5.67;;
3847;SDS011;1939;48.720;9.166;2023-04-15T01:59:13;11.13;;;5.97;;
3847;SDS011;1939;48.720;9.166;2023-04-15T02:01:38;11.40;;;5.93;;
3847;SDS011;1939;48.720;9.166;2023-04-15T02:04:05;10.90;;;6.23;;
3847;SDS011;1939;48.720;9.166;2023-04-15T02:06:30;8.43;;;5.33;;
3847;SDS011;1939;48.720;9.166;2023-04-15T02:08:55;7.17;;;5.57;;
3847;SDS011;1939;48.720;9.166;2023-04-15T02:11:21;8.40;;;5.30;;
3847;SDS011;1939;48.720;9.166;2023-04-15T02:13:47;8.17;;;5.83;;
3847;SDS011;1939;48.720;9.166;2023-04-15T02:16:18;7.90;;;5.57;;
3847;SDS011;1939;48.720;9.166;2023-04-15T02:18:44;7.43;;;5.00;;
3847;SDS011;1939;48.720;9.166;2023-04-15T02:21:09;8.40;;;5.10;;
3847;SDS011;1939;48.720;9.166;2023-04-15T02:23:34;9.87;;;5.87;;
3847;SDS011;1939;48.720;9.166;2023-04-15T02:25:59;7.13;;;5.80;;
3847;SDS011;1939;48.720;9.166;2023-04-15T02:28:25;8.90;;;5.40;;
3847;SDS011;1939;48.720;9.166;2023-04-15T02:30:51;9.13;;;5.40;;
3847;SDS011;1939;48.720;9.166;2023-04-15T02:33:18;11.90;;;5.73;;
3847;SDS011;1939;48.720;9.166;2023-04-15T02:35:43;13.00;;;5.90;;
3847;SDS011;1939;48.720;9.166;2023-04-15T02:38:10;8.77;;;5.10;;
3847;SDS011;1939;48.720;9.166;2023-04-15T02:40:35;13.70;;;5.40;;
3847;SDS011;1939;48.720;9.166;2023-04-15T02:43:01;7.30;;;5.03;;
3847;SDS011;1939;48.720;9.166;2023-04-15T02:45:27;8.90;;;5.30;;
3847;SDS011;1939;48.720;9.166;2023-04-15T02:47:52;12.73;;;5.10;;
3847;SDS011;1939;48.720;9.166;2023-04-15T02:50:17;8.23;;;4.23;;
3847;SDS011;1939;48.720;9.166;2023-04-15T02:52:43;9.47;;;5.57;;
3847;SDS011;1939;48.720;9.166;2023-04-15T02:55:08;10.40;;;5.20;;
3847;SDS011;1939;48.720;9.166;2023-04-15T02:57:34;6.87;;;5.20;;
3847;SDS011;1939;48.720;9.166;2023-04-15T03:00:02;5.93;;;4.80;;
3847;SDS011;1939;48.720;9.166;2023-04-15T03:02:27;10.60;;;5.30;;
3847;SDS011;1939;48.720;9.166;2023-04-15T03:04:57;9.13;;;5.20;;
3847;SDS011;1939;48.720;9.166;2023-04-15T03:07:22;14.47;;;5.67;;
3847;SDS011;1939;48.720;9.166;2023-04-15T03:09:47;8.37;;;4.20;;
3847;SDS011;1939;48.720;9.166;2023-04-15T03:12:13;8.80;;;4.33;;
3847;SDS011;1939;48.720;9.166;2023-04-15T03:14:38;9.97;;;3.97;;
3847;SDS011;1939;48.720;9.166;2023-04-15T03:17:03;7.50;;;4.70;;
3847;SDS011;1939;48.720;9.166;2023-04-15T03:19:28;10.20;;;4.20;;
3847;SDS011;1939;48.720;9.166;2023-04-15T03:21:53;5.13;;;3.60;;
3847;SDS011;1939;48.720;9.166;2023-04-15T03:24:19;9.60;;;4.13;;
3847;SDS011;1939;48.720;9.166;2023-04-15T03:26:44;8.30;;;4.50;;
3847;SDS011;1939;48.720;9.166;2023-04-15T03:29:10;8.30;;;4.30;;
3847;SDS011;1939;48.720;9.166;2023-04-15T03:31:35;20.53;;;3.97;;
3847;SDS011;1939;48.720;9.166;2023-04-15T03:34:00;6.80;;;3.93;;
3847;SDS011;1939;48.720;9.166;2023-04-15T03:36:26;8.00;;;4.40;;
3847;SDS011;1939;48.720;9.166;2023-04-15T03:38:51;7.87;;;3.90;;
3847;SDS011;1939;48.720;9.166;2023-04-15T03:41:16;9.90;;;3.53;;
3847;SDS011;1939;48.720;9.166;2023-04-15T03:43:42;11.30;;;4.60;;
3847;SDS011;1939;48.720;9.166;2023-04-15T03:46:07;6.70;;;4.47;;
3847;SDS011;1939;48.720;9.166;2023-04-15T03:48:32;12.83;;;4.57;;
3847;SDS011;1939;48.720;9.166;2023-04-15T03:50:57;10.73;;;4.00;;
3847;SDS011;1939;48.720;9.166;2023-04-15T03:53:23;11.83;;;4.53;;
3847;SDS011;1939;48.720;9.166;2023-04-15T03:55:48;7.60;;;3.50;;
3847;SDS011;1939;48.720;9.166;2023-04-15T03:58:13;5.90;;;3.07;;
3847;SDS011;1939;48.720;9.166;2023-04-15T04:00:39;6.33;;;4.20;;
3847;SDS011;1939;48.720;9.166;2023-04-15T04:03:05;5.77;;;4.30;;
3847;SDS011;1939;48.720;9.166;2023-04-15T04:05:31;8.80;;;4.10;;
3847;SDS011;1939;48.720;9.166;2023-04-15T04:07:56;6.50;;;3.30;;
3847;SDS011;1939;48.720;9.166;2023-04-15T04:10:21;7.53;;;3.50;;
3847;SDS011;1939;48.720;9.166;2023-04-15T04:12:46;17.93;;;4.27;;
3847;SDS011;1939;48.720;9.166;2023-04-15T04:15:11;15.10;;;3.97;;
3847;SDS011;1939;48.720;9.166;2023-04-15T04:17:37;9.80;;;4.17;;
3847;SDS011;1939;48.720;9.166;2023-04-15T04:20:02;7.00;;;4.07;;
3847;SDS011;1939;48.720;9.166;2023-04-15T04:22:27;6.27;;;3.37;;
3847;SDS011;1939;48.720;9.166;2023-04-15T04:24:53;13.77;;;4.53;;
3847;SDS011;1939;48.720;9.166;2023-04-15T04:27:18;17.43;;;4.60;;
3847;SDS011;1939;48.720;9.166;2023-04-15T04:29:43;8.20;;;4.70;;
3847;SDS011;1939;48.720;9.166;2023-04-15T04:32:08;7.03;;;4.00;;
3847;SDS011;1939;48.720;9.166;2023-04-15T04:34:34;8.07;;;3.80;;
3847;SDS011;1939;48.720;9.166;2023-04-15T04:37:00;7.83;;;4.57;;
3847;SDS011;1939;48.720;9.166;2023-04-15T04:39:25;7.00;;;4.40;;
3847;SDS011;1939;48.720;9.166;2023-04-15T04:41:50;11.97;;;4.57;;
3847;SDS011;1939;48.720;9.166;2023-04-15T04:44:18;9.03;;;3.83;;
3847;SDS011;1939;48.720;9.166;2023-04-15T04:46:44;13.77;;;3.30;;
3847;SDS011;1939;48.720;9.166;2023-04-15T04:49:09;11.43;;;5.93;;
3847;SDS011;1939;48.720;9.166;2023-04-15T04:51:34;12.97;;;6.73;;
3847;SDS011;1939;48.720;9.166;2023-04-15T04:54:00;7.43;;;4.60;;
3847;SDS011;1939;48.720;9.166;2023-04-15T04:56:25;8.63;;;3.63;;
3847;SDS011;1939;48.720;9.166;2023-04-15T04:58:51;6.70;;;4.17;;
3847;SDS011;1939;48.720;9.166;2023-04-15T05:01:16;5.90;;;3.30;;
3847;SDS011;1939;48.720;9.166;2023-04-15T05:03:41;8.77;;;3.50;;
3847;SDS011;1939;48.720;9.166;2023-04-15T05:06:06;6.47;;;3.57;;
3847;SDS011;1939;48.720;9.166;2023-04-15T05:08:32;8.70;;;3.17;;
3847;SDS011;1939;48.720;9.166;2023-04-15T05:10:58;24.90;;;4.20;;
3847;SDS011;1939;48.720;9.166;2023-04-15T05:13:23;6.70;;;3.00;;
3847;SDS011;1939;48.720;9.166;2023-04-15T05:15:48;13.80;;;4.33;;
3847;SDS011;1939;48.720;9.166;2023-04-15T05:18:14;5.30;;;3.90;;
3847;SDS011;1939;48.720;9.166;2023-04-15T05:20:39;9.87;;;3.87;;
3847;SDS011;1939;48.720;9.166;2023-04-15T05:23:04;5.97;;;4.77;;
3847;SDS011;1939;48.720;9.166;2023-04-15T05:25:30;6.83;;;3.93;;
3847;SDS011;1939;48.720;9.166;2023-04-15T05:27:55;13.60;;;4.30;;
3847;SDS011;1939;48.720;9.166;2023-04-15T05:30:20;9.00;;;4.37;;
3847;SDS011;1939;48.720;9.166;2023-04-15T05:32:46;9.20;;;6.40;;
3847;SDS011;1939;48.720;9.166;2023-04-15T05:35:11;14.70;;;7.87;;
3847;SDS011;1939;48.720;9.166;2023-04-15T05:37:36;20.00;;;8.97;;
3847;SDS011;1939;48.720;9.166;2023-04-15T05:40:02;26.30;;;7.87;;
3847;SDS011;1939;48.720;9.166;2023-04-15T05:42:28;17.70;;;9.00;;
3847;SDS011;1939;48.720;9.166;2023-04-15T05:44:53;12.03;;;8.23;;
3847;SDS011;1939;48.720;9.166;2023-04-15T05:47:18;18.27;;;9.73;;
3847;SDS011;1939;48.720;9.166;2023-04-15T05:49:44;33.73;;;10.23;;
3847;SDS011;1939;48.720;9.166;2023-04-15T05:52:09;16.10;;;9.67;;
3847;SDS011;1939;48.720;9.166;2023-04-15T05:54:34;17.27;;;11.73;;
3847;SDS011;1939;48.720;9.166;2023-04-15T05:57:00;20.40;;;9.83;;
3847;SDS011;1939;48.720;9.166;2023-04-15T05:59:25;20.70;;;9.90;;
3847;SDS011;1939;48.720;9.166;2023-04-15T06:01:52;18.23;;;10.47;;
3847;SDS011;1939;48.720;9.166;2023-04-15T06:04:17;24.23;;;10.00;;
3847;SDS011;1939;48.720;9.166;2023-04-15T06:06:42;18.87;;;8.87;;
3847;SDS011;1939;48.720;9.166;2023-04-15T06:09:08;19.10;;;8.80;;
3847;SDS011;1939;48.720;9.166;2023-04-15T06:11:33;16.57;;;7.97;;
3847;SDS011;1939;48.720;9.166;2023-04-15T06:13:59;21.17;;;8.40;;
3847;SDS011;1939;48.720;9.166;2023-04-15T06:16:24;13.13;;;6.57;;
3847;SDS011;1939;48.720;9.166;2023-04-15T06:18:50;12.93;;;6.93;;
3847;SDS011;1939;48.720;9.166;2023-04-15T06:21:15;17.93;;;6.40;;
3847;SDS011;1939;48.720;9.166;2023-04-15T06:23:40;9.43;;;5.63;;
3847;SDS011;1939;48.720;9.166;2023-04-15T06:26:06;7.13;;;5.00;;
3847;SDS011;1939;48.720;9.166;2023-04-15T06:28:31;8.27;;;5.57;;
3847;SDS011;1939;48.720;9.166;2023-04-15T06:30:56;10.70;;;5.50;;
3847;SDS011;1939;48.720;9.166;2023-04-15T06:33:21;10.13;;;6.17;;
3847;SDS011;1939;48.720;9.166;2023-04-15T06:35:47;6.77;;;5.20;;
3847;SDS011;1939;48.720;9.166;2023-04-15T06:38:13;14.53;;;5.93;;
3847;SDS011;1939;48.720;9.166;2023-04-15T06:40:38;11.50;;;6.63;;
3847;SDS011;1939;48.720;9.166;2023-04-15T06:43:04;11.40;;;7.30;;
3847;SDS011;1939;48.720;9.166;2023-04-15T06:45:29;15.87;;;6.67;;
3847;SDS011;1939;48.720;9.166;2023-04-15T06:47:55;11.13;;;7.27;;
3847;SDS011;1939;48.720;9.166;2023-04-15T06:50:20;12.97;;;7.40;;
3847;SDS011;1939;48.720;9.166;2023-04-15T06:52:45;14.00;;;6.80;;
3847;SDS011;1939;48.720;9.166;2023-04-15T06:55:11;11.93;;;6.37;;
3847;SDS011;1939;48.720;9.166;2023-04-15T06:57:36;9.40;;;6.27;;
3847;SDS011;1939;48.720;9.166;2023-04-15T07:00:01;15.43;;;6.83;;
3847;SDS011;1939;48.720;9.166;2023-04-15T07:02:29;9.57;;;6.13;;
3847;SDS011;1939;48.720;9.166;2023-04-15T07:04:55;10.00;;;6.43;;
3847;SDS011;1939;48.720;9.166;2023-04-15T07:07:21;11.30;;;6.67;;
3847;SDS011;1939;48.720;9.166;2023-04-15T07:09:46;14.50;;;7.13;;
3847;SDS011;1939;48.720;9.166;2023-04-15T07:12:11;7.80;;;6.47;;
3847;SDS011;1939;48.720;9.166;2023-04-15T07:14:37;10.50;;;7.00;;
3847;SDS011;1939;48.720;9.166;2023-04-15T07:17:02;10.30;;;6.33;;
3847;SDS011;1939;48.720;9.166;2023-04-15T07:19:27;15.97;;;7.60;;
3847;SDS011;1939;48.720;9.166;2023-04-15T07:21:52;8.87;;;6.50;;
3847;SDS011;1939;48.720;9.166;2023-04-15T07:24:17;12.10;;;7.30;;
3847;SDS011;1939;48.720;9.166;2023-04-15T07:26:44;8.67;;;5.70;;
3847;SDS011;1939;48.720;9.166;2023-04-15T07:29:09;11.23;;;6.97;;
3847;SDS011;1939;48.720;9.166;2023-04-15T07:31:35;9.80;;;5.93;;
3847;SDS011;1939;48.720;9.166;2023-04-15T07:34:01;10.93;;;5.83;;
3847;SDS011;1939;48.720;9.166;2023-04-15T07:36:26;9.00;;;5.67;;
3847;SDS011;1939;48.720;9.166;2023-04-15T07:38:53;12.03;;;5.17;;
3847;SDS011;1939;48.720;9.166;2023-04-15T07:41:19;11.23;;;5.80;;
3847;SDS011;1939;48.720;9.166;2023-04-15T07:43:45;10.87;;;5.43;;
3847;SDS011;1939;48.720;9.166;2023-04-15T07:46:10;11.07;;;4.73;;
3847;SDS011;1939;48.720;9.166;2023-04-15T07:48:35;6.20;;;5.20;;
3847;SDS011;1939;48.720;9.166;2023-04-15T07:51:00;12.03;;;5.60;;
3847;SDS011;1939;48.720;9.166;2023-04-15T07:53:26;10.47;;;5.50;;
3847;SDS011;1939;48.720;9.166;2023-04-15T07:55:52;10.53;;;5.20;;
3847;SDS011;1939;48.720;9.166;2023-04-15T07:58:17;10.70;;;5.37;;
3847;SDS011;1939;48.720;9.166;2023-04-15T08:00:42;7.43;;;4.80;;
3847;SDS011;1939;48.720;9.166;2023-04-15T08:03:07;16.53;;;5.40;;
3847;SDS011;1939;48.720;9.166;2023-04-15T08:05:33;9.63;;;5.40;;
3847;SDS011;1939;48.720;9.166;2023-04-15T08:07:58;10.77;;;5.10;;
3847;SDS011;1939;48.720;9.166;2023-04-15T08:10:23;13.00;;;5.60;;
3847;SDS011;1939;48.720;9.166;2023-04-15T08:12:48;10.10;;;4.87;;
3847;SDS011;1939;48.720;9.166;2023-04-15T08:15:14;10.00;;;5.67;;
3847;SDS011;1939;48.720;9.166;2023-04-15T08:17:40;14.47;;;5.20;;
3847;SDS011;1939;48.720;9.166;2023-04-15T08:20:06;9.03;;;5.33;;
3847;SDS011;1939;48.720;9.166;2023-04-15T08:22:31;9.00;;;5.33;;
3847;SDS011;1939;48.720;9.166;2023-04-15T08:24:56;7.90;;;4.60;;
3847;SDS011;1939;48.720;9.166;2023-04-15T08:27:21;9.33;;;5.87;;
3847;SDS011;1939;48.720;9.166;2023-04-15T08:29:47;10.30;;;4.87;;
3847;SDS011;1939;48.720;9.166;2023-04-15T08:32:12;8.00;;;5.10;;
3847;SDS011;1939;48.720;9.166;2023-04-15T08:34:37;12.87;;;4.60;;
3847;SDS011;1939;48.720;9.166;2023-04-15T08:37:02;9.20;;;4.90;;
3847;SDS011;1939;48.720;9.166;2023-04-15T08:39:28;6.10;;;4.50;;
3847;SDS011;1939;48.720;9.166;2023-04-15T08:42:00;9.07;;;4.77;;
3847;SDS011;1939;48.720;9.166;2023-04-15T08:44:32;8.13;;;4.60;;
3847;SDS011;1939;48.720;9.166;2023-04-15T08:47:00;5.90;;;4.07;;
3847;SDS011;1939;48.720;9.166;2023-04-15T08:49:26;13.93;;;5.93;;
3847;SDS011;1939;48.720;9.166;2023-04-15T08:51:52;7.97;;;4.80;;
3847;SDS011;1939;48.720;9.166;2023-04-15T08:54:18;9.83;;;4.90;;
3847;SDS011;1939;48.720;9.166;2023-04-15T08:56:43;6.57;;;3.20;;
3847;SDS011;1939;48.720;9.166;2023-04-15T08:59:09;6.50;;;2.87;;
3847;SDS011;1939;48.720;9.166;2023-04-15T09:01:36;4.00;;;2.77;;
3847;SDS011;1939;48.720;9.166;2023-04-15T09:04:01;5.20;;;3.00;;
3847;SDS011;1939;48.720;9.166;2023-04-15T09:06:27;5.60;;;2.87;;
3847;SDS011;1939;48.720;9.166;2023-04-15T09:08:52;5.40;;;2.87;;
3847;SDS011;1939;48.720;9.166;2023-04-15T09:11:17;8.67;;;2.70;;
3847;SDS011;1939;48.720;9.166;2023-04-15T09:13:43;7.83;;;2.90;;
3847;SDS011;1939;48.720;9.166;2023-04-15T09:16:09;6.13;;;2.40;;
3847;SDS011;1939;48.720;9.166;2023-04-15T09:18:34;7.33;;;2.80;;
3847;SDS011;1939;48.720;9.166;2023-04-15T09:21:06;4.30;;;2.90;;
3847;SDS011;1939;48.720;9.166;2023-04-15T09:23:33;10.37;;;2.70;;
3847;SDS011;1939;48.720;9.166;2023-04-15T09:25:58;4.30;;;2.10;;
3847;SDS011;1939;48.720;9.166;2023-04-15T09:28:24;6.37;;;2.20;;
3847;SDS011;1939;48.720;9.166;2023-04-15T09:30:58;3.00;;;2.40;;
3847;SDS011;1939;48.720;9.166;2023-04-15T09:33:25;6.40;;;3.00;;
3847;SDS011;1939;48.720;9.166;2023-04-15T09:36:04;6.53;;;3.27;;
3847;SDS011;1939;48.720;9.166;2023-04-15T09:38:29;4.43;;;2.60;;
3847;SDS011;1939;48.720;9.166;2023-04-15T09:40:55;8.20;;;2.40;;
3847;SDS011;1939;48.720;9.166;2023-04-15T09:43:21;10.57;;;2.40;;
3847;SDS011;1939;48.720;9.166;2023-04-15T09:45:50;5.67;;;2.90;;
3847;SDS011;1939;48.720;9.166;2023-04-15T09:48:19;2.87;;;2.57;;
3847;SDS011;1939;48.720;9.166;2023-04-15T09:50:45;4.63;;;2.20;;
3847;SDS011;1939;48.720;9.166;2023-04-15T09:53:20;5.90;;;2.77;;
3847;SDS011;1939;48.720;9.166;2023-04-15T09:55:52;3.93;;;2.77;;
3847;SDS011;1939;48.720;9.166;2023-04-15T09:58:22;4.80;;;3.00;;
3847;SDS011;1939;48.720;9.166;2023-04-15T10:00:48;4.77;;;3.27;;
3847;SDS011;1939;48.720;9.166;2023-04-15T10:03:21;5.80;;;3.03;;
3847;SDS011;1939;48.720;9.166;2023-04-15T10:05:47;5.97;;;3.37;;
3847;SDS011;1939;48.720;9.166;2023-04-15T10:08:14;3.73;;;2.97;;
3847;SDS011;1939;48.720;9.166;2023-04-15T10:10:40;3.57;;;2.37;;
3847;SDS011;1939;48.720;9.166;2023-04-15T10:13:05;6.90;;;3.23;;
3847;SDS011;1939;48.720;9.166;2023-04-15T10:15:31;6.10;;;3.50;;
3847;SDS011;1939;48.720;9.166;2023-04-15T10:17:56;9.90;;;3.57;;
3847;SDS011;1939;48.720;9.166;2023-04-15T10:20:22;5.63;;;2.67;;
3847;SDS011;1939;48.720;9.166;2023-04-15T10:22:48;2.90;;;2.67;;
3847;SDS011;1939;48.720;9.166;2023-04-15T10:25:14;15.30;;;3.23;;
3847;SDS011;1939;48.720;9.166;2023-04-15T10:27:39;4.27;;;3.10;;
3847;SDS011;1939;48.720;9.166;2023-04-15T10:30:06;5.17;;;3.43;;
3847;SDS011;1939;48.720;9.166;2023-04-15T10:32:31;5.90;;;3.33;;
3847;SDS011;1939;48.720;9.166;2023-04-15T10:34:57;3.43;;;2.73;;
3847;SDS011;1939;48.720;9.166;2023-04-15T10:37:35;6.10;;;3.73;;
3847;SDS011;1939;48.720;9.166;2023-04-15T10:40:12;3.03;;;2.73;;
3847;SDS011;1939;48.720;9.166;2023-04-15T10:42:46;6.50;;;3.40;;
3847;SDS011;1939;48.720;9.166;2023-04-15T10:45:15;6.13;;;3.57;;
3847;SDS011;1939;48.720;9.166;2023-04-15T10:47:40;7.10;;;3.50;;
3847;SDS011;1939;48.720;9.166;2023-04-15T10:50:07;5.70;;;2.87;;
3847;SDS011;1939;48.720;9.166;2023-04-15T10:52:32;7.30;;;2.97;;
3847;SDS011;1939;48.720;9.166;2023-04-15T10:55:01;5.97;;;3.00;;
3847;SDS011;1939;48.720;9.166;2023-04-15T10:57:27;5.00;;;3.00;;
3847;SDS011;1939;48.720;9.166;2023-04-15T10:59:59;12.23;;;3.73;;
3847;SDS011;1939;48.720;9.166;2023-04-15T11:05:12;9.53;;;5.50;;
3847;SDS011;1939;48.720;9.166;2023-04-15T11:12:50;5.23;;;3.80;;
3847;SDS011;1939;48.720;9.166;2023-04-15T11:15:26;5.43;;;3.70;;
3847;SDS011;1939;48.720;9.166;2023-04-15T11:17:51;6.50;;;4.03;;
3847;SDS011;1939;48.720;9.166;2023-04-15T11:20:17;6.80;;;3.17;;
3847;SDS011;1939;48.720;9.166;2023-04-15T11:22:46;8.30;;;3.70;;
3847;SDS011;1939;48.720;9.166;2023-04-15T11:25:20;10.00;;;3.93;;
3847;SDS011;1939;48.720;9.166;2023-04-15T11:27:46;10.70;;;6.97;;
3847;SDS011;1939;48.720;9.166;2023-04-15T11:30:21;5.23;;;4.50;;
3847;SDS011;1939;48.720;9.166;2023-04-15T11:32:47;5.30;;;4.17;;
3847;SDS011;1939;48.720;9.166;2023-04-15T11:35:12;5.73;;;3.50;;
3847;SDS011;1939;48.720;9.166;2023-04-15T11:37:38;4.80;;;3.50;;
3847;SDS011;1939;48.720;9.166;2023-04-15T11:40:03;6.67;;;3.50;;
3847;SDS011;1939;48.720;9.166;2023-04-15T11:42:28;6.10;;;3.03;;
3847;SDS011;1939;48.720;9.166;2023-04-15T11:45:09;11.63;;;4.57;;
3847;SDS011;1939;48.720;9.166;2023-04-15T11:47:35;5.37;;;3.73;;
3847;SDS011;1939;48.720;9.166;2023-04-15T11:50:16;6.07;;;4.07;;
3847;SDS011;1939;48.720;9.166;2023-04-15T11:52:55;7.17;;;3.27;;
3847;SDS011;1939;48.720;9.166;2023-04-15T11:55:20;5.20;;;3.57;;
3847;SDS011;1939;48.720;9.166;2023-04-15T11:57:47;6.23;;;4.47;;
3847;SDS011;1939;48.720;9.166;2023-04-15T12:00:13;4.97;;;4.10;;
3847;SDS011;1939;48.720;9.166;2023-04-15T12:02:38;7.20;;;4.60;;
3847;SDS011;1939;48.720;9.166;2023-04-15T12:05:07;7.23;;;4.10;;
3847;SDS011;1939;48.720;9.166;2023-04-15T12:07:32;6.63;;;4.00;;
3847;SDS011;1939;48.720;9.166;2023-04-15T12:09:58;5.63;;;4.37;;
3847;SDS011;1939;48.720;9.166;2023-04-15T12:12:27;6.57;;;4.03;;
3847;SDS011;1939;48.720;9.166;2023-04-15T12:14:52;10.30;;;4.17;;
3847;SDS011;1939;48.720;9.166;2023-04-15T12:17:18;8.00;;;4.30;;
3847;SDS011;1939;48.720;9.166;2023-04-15T12:19:44;9.27;;;5.40;;
3847;SDS011;1939;48.720;9.166;2023-04-15T12:22:10;6.03;;;3.90;;
3847;SDS011;1939;48.720;9.166;2023-04-15T12:24:36;7.97;;;4.50;;
3847;SDS011;1939;48.720;9.166;2023-04-15T12:27:02;6.53;;;3.63;;
3847;SDS011;1939;48.720;9.166;2023-04-15T12:29:28;8.13;;;4.30;;
3847;SDS011;1939;48.720;9.166;2023-04-15T12:34:29;7.70;;;4.40;;
3847;SDS011;1939;48.720;9.166;2023-04-15T12:36:55;10.37;;;4.47;;
3847;SDS011;1939;48.720;9.166;2023-04-15T12:39:22;5.50;;;4.13;;
3847;SDS011;1939;48.720;9.166;2023-04-15T12:41:48;12.43;;;4.03;;
3847;SDS011;1939;48.720;9.166;2023-04-15T12:44:13;6.67;;;3.63;;
3847;SDS011;1939;48.720;9.166;2023-04-15T12:46:38;6.60;;;3.87;;
3847;SDS011;1939;48.720;9.166;2023-04-15T12:49:03;6.60;;;3.70;;
3847;SDS011;1939;48.720;9.166;2023-04-15T12:51:29;5.47;;;3.53;;
3847;SDS011;1939;48.720;9.166;2023-04-15T12:53:55;13.60;;;5.97;;
3847;SDS011;1939;48.720;9.166;2023-04-15T12:56:21;6.40;;;3.77;;
3847;SDS011;1939;48.720;9.166;2023-04-15T12:58:46;5.83;;;3.77;;
3847;SDS011;1939;48.720;9.166;2023-04-15T13:01:11;5.43;;;3.70;;
3847;SDS011;1939;48.720;9.166;2023-04-15T13:03:37;6.77;;;3.93;;
3847;SDS011;1939;48.720;9.166;2023-04-15T13:06:02;4.83;;;3.93;;
3847;SDS011;1939;48.720;9.166;2023-04-15T13:08:29;4.50;;;3.50;;
3847;SDS011;1939;48.720;9.166;2023-04-15T13:10:54;3.67;;;2.77;;
3847;SDS011;1939;48.720;9.166;2023-04-15T13:13:19;9.77;;;3.30;;
3847;SDS011;1939;48.720;9.166;2023-04-15T13:15:45;5.13;;;3.50;;
3847;SDS011;1939;48.720;9.166;2023-04-15T13:18:10;7.43;;;3.83;;
3847;SDS011;1939;48.720;9.166;2023-04-15T13:20:35;5.80;;;3.40;;
3847;SDS011;1939;48.720;9.166;2023-04-15T13:23:00;4.67;;;3.67;;
3847;SDS011;1939;48.720;9.166;2023-04-15T13:25:26;4.20;;;3.30;;
3847;SDS011;1939;48.720;9.166;2023-04-15T13:27:51;7.37;;;3.13;;
3847;SDS011;1939;48.720;9.166;2023-04-15T13:30:17;4.27;;;3.07;;
3847;SDS011;1939;48.720;9.166;2023-04-15T13:32:42;6.40;;;3.33;;
3847;SDS011;1939;48.720;9.166;2023-04-15T13:35:07;6.87;;;5.57;;
3847;SDS011;1939;48.720;9.166;2023-04-15T13:37:33;4.50;;;3.30;;
3847;SDS011;1939;48.720;9.166;2023-04-15T13:39:58;5.93;;;3.07;;
3847;SDS011;1939;48.720;9.166;2023-04-15T13:42:23;3.33;;;3.07;;
3847;SDS011;1939;48.720;9.166;2023-04-15T13:44:49;7.30;;;3.63;;
3847;SDS011;1939;48.720;9.166;2023-04-15T13:47:15;3.90;;;3.20;;
3847;SDS011;1939;48.720;9.166;2023-04-15T13:49:40;4.37;;;3.13;;
3847;SDS011;1939;48.720;9.166;2023-04-15T13:52:05;5.37;;;2.90;;
3847;SDS011;1939;48.720;9.166;2023-04-15T13:54:30;5.67;;;3.00;;
3847;SDS011;1939;48.720;9.166;2023-04-15T13:56:56;5.03;;;3.60;;
3847;SDS011;1939;48.720;9.166;2023-04-15T13:59:22;5.63;;;2.33;;
3847;SDS011;1939;48.720;9.166;2023-04-15T14:01:47;2.70;;;2.10;;
3847;SDS011;1939;48.720;9.166;2023-04-15T14:04:12;4.07;;;2.10;;
3847;SDS011;1939;48.720;9.166;2023-04-15T14:06:38;3.10;;;2.30;;
3847;SDS011;1939;48.720;9.166;2023-04-15T14:09:03;5.57;;;3.20;;
3847;SDS011;1939;48.720;9.166;2023-04-15T14:11:28;2.80;;;2.40;;
3847;SDS011;1939;48.720;9.166;2023-04-15T14:13:54;4.73;;;2.27;;
3847;SDS011;1939;48.720;9.166;2023-04-15T14:16:19;3.30;;;2.00;;
3847;SDS011;1939;48.720;9.166;2023-04-15T14:18:44;3.70;;;2.93;;
3847;SDS011;1939;48.720;9.166;2023-04-15T14:21:10;2.47;;;2.00;;
3847;SDS011;1939;48.720;9.166;2023-04-15T14:23:35;3.30;;;2.70;;
3847;SDS011;1939;48.720;9.166;2023-04-15T14:26:00;2.80;;;2.10;;
3847;SDS011;1939;48.720;9.166;2023-04-15T14:28:25;2.30;;;1.57;;
3847;SDS011;1939;48.720;9.166;2023-04-15T14:30:51;9.13;;;2.10;;
3847;SDS011;1939;48.720;9.166;2023-04-15T14:33:16;2.70;;;1.70;;
3847;SDS011;1939;48.720;9.166;2023-04-15T14:35:41;4.50;;;2.57;;
3847;SDS011;1939;48.720;9.166;2023-04-15T14:38:06;2.50;;;1.80;;
3847;SDS011;1939;48.720;9.166;2023-04-15T14:40:34;2.43;;;1.60;;
3847;SDS011;1939;48.720;9.166;2023-04-15T14:43:00;2.87;;;1.80;;
3847;SDS011;1939;48.720;9.166;2023-04-15T14:45:25;3.00;;;1.53;;
3847;SDS011;1939;48.720;9.166;2023-04-15T14:47:50;2.10;;;1.73;;
3847;SDS011;1939;48.720;9.166;2023-04-15T14:50:17;4.97;;;1.73;;
3847;SDS011;1939;48.720;9.166;2023-04-15T14:52:42;3.87;;;2.20;;
3847;SDS011;1939;48.720;9.166;2023-04-15T14:55:08;3.90;;;2.23;;
3847;SDS011;1939;48.720;9.166;2023-04-15T14:57:34;4.93;;;2.23;;
3847;SDS011;1939;48.720;9.166;2023-04-15T15:00:00;5.33;;;2.40;;
3847;SDS011;1939;48.720;9.166;2023-04-15T15:02:25;4.10;;;1.93;;
3847;SDS011;1939;48.720;9.166;2023-04-15T15:04:50;7.20;;;2.37;;
3847;SDS011;1939;48.720;9.166;2023-04-15T15:07:15;2.67;;;1.97;;
3847;SDS011;1939;48.720;9.166;2023-04-15T15:09:41;3.27;;;2.13;;
3847;SDS011;1939;48.720;9.166;2023-04-15T15:12:06;11.03;;;2.47;;